Disclaimer

Please do not use the information listed here in-flight or in-navigation, as they are not provided to us by the airports but are provided by volunteers, so they might be outdated.

Search


Regions


Airport information page

No radio frequency information is available.

Airport informations:
Latitude: 22° 38' 21.33" N
Longitude: 113° 48' 38.39" E
Elevation: 13 feet - 4 meters
Operating hours: Remarks
Operating agency: Civil government, landing fees and diplomatic clearance may be required
Timezone: UTC+8
Fuel: Jet A1, without icing nhibitor.

Runway information:
15/33 - 11155 x 148 feet< - >3400 x 45 meters

Recent METARs:
ZGSZ 170600Z 04003MPS 5000 BR SCT017 OVC027 24/20 Q1015 NOSIG
ZGSZ 170700Z 04003MPS 5000 BR SCT017 OVC027 24/20 Q1015 NOSIG
ZGSZ 170700Z 04003MPS 5000 BR SCT017 OVC027 24/20 Q1015 NOSIG

Airport on the map: